Time;durP1;ratioP1;P1;durP2;ratioP2;P2;SDS_P1;SDS_P2;PMS_P1;PMS_P2;Temp;Humidity;BMP_temperature;BMP_pressure;BME280_temperature;BME280_humidity;BME280_pressure;Samples;Min_cycle;Max_cycle;Signal;HPM_P1;HPM_P2
2022/04/15 00:00:01;;;;;;;3.90;3.60;;;;;;;;;;4946190;29;20223;-58
2022/04/15 00:02:28;;;;;;;3.13;2.93;;;;;;;;;;4935111;29;20299;-59
2022/04/15 00:04:56;;;;;;;4.27;3.47;;;;;;;;;;4927186;29;20238;-58
2022/04/15 00:07:25;;;;;;;3.73;3.47;;;;;;;;;;4942041;29;20714;-59
2022/04/15 00:09:52;;;;;;;4.20;3.37;;;;;;;;;;4946263;29;20306;-59
2022/04/15 00:12:28;;;;;;;3.70;2.87;;;;;;;;;;4935060;29;20223;-58
2022/04/15 00:14:55;;;;;;;5.83;3.00;;;;;;;;;;4941277;29;20210;-58
2022/04/15 00:17:22;;;;;;;3.20;2.90;;;;;;;;;;4943090;29;20210;-58
2022/04/15 00:19:49;;;;;;;3.70;3.50;;;;;;;;;;4944773;28;20648;-58
2022/04/15 00:22:16;;;;;;;5.13;3.50;;;;;;;;;;4945566;29;20219;-58
2022/04/15 00:24:45;;;;;;;3.30;3.00;;;;;;;;;;4944654;29;20290;-59
2022/04/15 00:27:12;;;;;;;4.03;3.50;;;;;;;;;;4943210;29;20231;-60
2022/04/15 00:29:40;;;;;;;6.83;3.50;;;;;;;;;;4944645;28;20789;-61
2022/04/15 00:32:07;;;;;;;3.83;3.63;;;;;;;;;;4930511;29;20216;-60
2022/04/15 00:34:35;;;;;;;3.77;3.47;;;;;;;;;;4926914;29;20220;-60
2022/04/15 00:37:02;;;;;;;3.80;3.50;;;;;;;;;;4943931;29;20203;-60
2022/04/15 00:39:30;;;;;;;3.80;3.50;;;;;;;;;;4945162;29;20211;-60
2022/04/15 00:41:59;;;;;;;4.00;3.70;;;;;;;;;;4929983;29;20908;-60
2022/04/15 00:44:26;;;;;;;3.50;3.30;;;;;;;;;;4944114;29;20221;-60
2022/04/15 00:46:53;;;;;;;3.87;3.27;;;;;;;;;;4937383;29;20245;-60
2022/04/15 00:49:20;;;;;;;4.87;3.80;;;;;;;;;;4945329;29;20226;-60
2022/04/15 00:51:49;;;;;;;3.60;3.33;;;;;;;;;;4945118;29;20285;-60
2022/04/15 00:54:17;;;;;;;3.63;3.00;;;;;;;;;;4945403;29;20222;-60
2022/04/15 00:56:45;;;;;;;3.40;3.10;;;;;;;;;;4933470;29;20207;-59
2022/04/15 00:59:14;;;;;;;3.17;2.90;;;;;;;;;;4945088;29;20217;-59
2022/04/15 01:01:42;;;;;;;5.53;3.67;;;;;;;;;;4944621;29;20203;-60
2022/04/15 01:04:09;;;;;;;7.63;3.67;;;;;;;;;;4926220;29;20335;-58
2022/04/15 01:06:37;;;;;;;3.87;3.30;;;;;;;;;;4940065;29;20313;-59
2022/04/15 01:09:04;;;;;;;3.73;3.43;;;;;;;;;;4935155;29;20215;-60
2022/04/15 01:11:32;;;;;;;3.53;3.20;;;;;;;;;;4926635;29;20278;-60
2022/04/15 01:14:00;;;;;;;5.60;3.40;;;;;;;;;;4940741;29;20215;-60
2022/04/15 01:16:29;;;;;;;4.43;3.80;;;;;;;;;;4939683;29;20218;-60
2022/04/15 01:18:56;;;;;;;3.90;3.53;;;;;;;;;;4945274;29;20215;-60
2022/04/15 01:21:25;;;;;;;3.60;3.30;;;;;;;;;;4932665;29;20246;-59
2022/04/15 01:23:54;;;;;;;3.37;2.97;;;;;;;;;;4945577;29;20219;-58
2022/04/15 01:26:21;;;;;;;3.40;3.10;;;;;;;;;;4943536;29;20227;-59
2022/04/15 01:28:48;;;;;;;4.13;3.00;;;;;;;;;;4938618;29;20581;-59
2022/04/15 01:31:15;;;;;;;5.17;3.37;;;;;;;;;;4949345;28;20234;-59
2022/04/15 01:33:42;;;;;;;3.30;3.00;;;;;;;;;;4952605;29;20210;-59
2022/04/15 01:36:09;;;;;;;3.07;2.87;;;;;;;;;;4949192;29;20289;-59
2022/04/15 01:38:36;;;;;;;3.30;3.10;;;;;;;;;;4951965;29;20207;-59
2022/04/15 01:41:04;;;;;;;3.90;3.60;;;;;;;;;;4949542;29;20212;-59
2022/04/15 01:43:31;;;;;;;3.70;3.27;;;;;;;;;;4952014;29;20203;-59
2022/04/15 01:45:59;;;;;;;3.90;3.50;;;;;;;;;;4950020;29;20211;-59
2022/04/15 01:48:26;;;;;;;4.87;3.40;;;;;;;;;;4949715;29;20226;-59
2022/04/15 01:50:53;;;;;;;5.57;3.90;;;;;;;;;;4948965;29;20278;-59
2022/04/15 01:53:22;;;;;;;4.47;4.07;;;;;;;;;;4948662;29;20233;-59
2022/04/15 01:55:49;;;;;;;5.50;4.90;;;;;;;;;;4952413;29;20219;-59
2022/04/15 01:58:18;;;;;;;6.60;5.03;;;;;;;;;;4950178;29;20199;-58
2022/04/15 02:00:45;;;;;;;6.37;4.63;;;;;;;;;;4952347;29;20207;-58
2022/04/15 02:03:12;;;;;;;6.27;4.67;;;;;;;;;;4950179;29;20203;-58
2022/04/15 02:05:39;;;;;;;5.00;3.77;;;;;;;;;;4952174;29;20991;-59
2022/04/15 02:08:06;;;;;;;5.63;3.73;;;;;;;;;;4951007;29;20289;-58
2022/04/15 02:10:33;;;;;;;4.37;3.97;;;;;;;;;;4949462;29;20242;-59
2022/04/15 02:13:00;;;;;;;3.87;3.57;;;;;;;;;;4949886;29;20211;-58
2022/04/15 02:15:28;;;;;;;4.80;4.30;;;;;;;;;;4948093;29;20639;-58
2022/04/15 02:17:56;;;;;;;7.07;4.43;;;;;;;;;;4950759;29;20211;-58
2022/04/15 02:20:23;;;;;;;4.67;4.23;;;;;;;;;;4951697;29;20217;-58
2022/04/15 02:22:51;;;;;;;4.13;3.73;;;;;;;;;;4947308;29;20203;-58
2022/04/15 02:25:18;;;;;;;5.20;4.27;;;;;;;;;;4951776;29;20375;-58
2022/04/15 02:27:45;;;;;;;5.07;4.17;;;;;;;;;;4953807;28;20290;-58
2022/04/15 02:30:12;;;;;;;5.60;4.00;;;;;;;;;;4955562;28;20756;-58
2022/04/15 02:32:41;;;;;;;5.10;4.37;;;;;;;;;;4951972;28;20246;-58
2022/04/15 02:35:09;;;;;;;5.33;4.70;;;;;;;;;;4959675;28;20207;-59
2022/04/15 02:37:36;;;;;;;5.60;4.47;;;;;;;;;;4954933;28;20207;-59
2022/04/15 02:40:04;;;;;;;6.50;4.53;;;;;;;;;;4958068;28;20643;-59
2022/04/15 02:42:31;;;;;;;4.90;4.47;;;;;;;;;;4960346;28;20212;-58
2022/04/15 02:44:58;;;;;;;4.33;4.03;;;;;;;;;;4956528;28;20203;-59
2022/04/15 02:47:25;;;;;;;4.40;4.00;;;;;;;;;;4959184;28;20230;-58
2022/04/15 02:49:53;;;;;;;6.23;4.70;;;;;;;;;;4959250;28;20204;-59
2022/04/15 02:52:20;;;;;;;6.17;4.73;;;;;;;;;;4952264;28;20265;-58
2022/04/15 02:54:47;;;;;;;7.67;4.77;;;;;;;;;;4951366;29;20289;-58
2022/04/15 02:57:14;;;;;;;6.27;5.23;;;;;;;;;;4950350;29;20210;-61
2022/04/15 02:59:41;;;;;;;7.20;5.20;;;;;;;;;;4950554;29;20580;-59
2022/04/15 03:02:08;;;;;;;5.83;4.60;;;;;;;;;;4949702;29;20207;-58
2022/04/15 03:04:35;;;;;;;5.67;4.57;;;;;;;;;;4950003;29;20210;-59
2022/04/15 03:07:04;;;;;;;5.47;4.20;;;;;;;;;;4948269;29;20227;-59
2022/04/15 03:09:31;;;;;;;6.23;4.80;;;;;;;;;;4943526;29;20211;-58
2022/04/15 03:11:58;;;;;;;5.37;4.50;;;;;;;;;;4948115;29;20266;-58
2022/04/15 03:14:25;;;;;;;4.73;4.23;;;;;;;;;;4946438;29;20215;-59
2022/04/15 03:16:52;;;;;;;4.80;4.37;;;;;;;;;;4951021;29;20880;-59
2022/04/15 03:19:19;;;;;;;4.50;4.10;;;;;;;;;;4949578;29;20612;-59
2022/04/15 03:21:46;;;;;;;4.43;4.10;;;;;;;;;;4948426;29;20207;-58
2022/04/15 03:24:15;;;;;;;5.67;4.80;;;;;;;;;;4947588;29;20270;-58
2022/04/15 03:26:42;;;;;;;5.93;4.60;;;;;;;;;;4950495;29;20282;-59
2022/04/15 03:29:09;;;;;;;4.60;4.10;;;;;;;;;;4949559;29;20206;-58
2022/04/15 03:31:36;;;;;;;5.47;4.53;;;;;;;;;;4937717;28;20212;-59
2022/04/15 03:34:03;;;;;;;6.37;4.40;;;;;;;;;;4946992;29;20238;-58
2022/04/15 03:36:30;;;;;;;4.33;3.93;;;;;;;;;;4949083;29;20207;-58
2022/04/15 03:38:57;;;;;;;5.70;4.13;;;;;;;;;;4942678;28;20216;-58
2022/04/15 03:41:25;;;;;;;5.53;4.60;;;;;;;;;;4951350;29;20207;-58
2022/04/15 03:43:52;;;;;;;8.20;4.50;;;;;;;;;;4951265;29;20901;-59
2022/04/15 03:46:20;;;;;;;6.17;4.30;;;;;;;;;;4932436;29;20212;-58
2022/04/15 03:48:47;;;;;;;7.50;4.10;;;;;;;;;;4932751;29;20362;-58
2022/04/15 03:51:14;;;;;;;4.60;4.20;;;;;;;;;;4948498;29;20265;-58
2022/04/15 03:53:41;;;;;;;5.63;4.40;;;;;;;;;;4950509;28;20588;-60
2022/04/15 03:56:08;;;;;;;4.67;4.23;;;;;;;;;;4950339;29;20317;-59
2022/04/15 03:58:36;;;;;;;6.03;4.47;;;;;;;;;;4951164;29;20749;-59
2022/04/15 04:01:04;;;;;;;6.37;5.00;;;;;;;;;;4940388;29;20681;-59
2022/04/15 04:03:31;;;;;;;6.60;4.97;;;;;;;;;;4949632;29;20563;-58
2022/04/15 04:05:58;;;;;;;9.17;4.93;;;;;;;;;;4950451;29;20670;-59
2022/04/15 04:08:25;;;;;;;5.00;4.53;;;;;;;;;;4934988;29;20227;-59
2022/04/15 04:10:52;;;;;;;6.53;4.03;;;;;;;;;;4933824;29;20204;-58
2022/04/15 04:13:19;;;;;;;6.53;4.63;;;;;;;;;;4944310;29;20218;-59
2022/04/15 04:15:47;;;;;;;7.70;4.90;;;;;;;;;;4939587;29;20218;-59
2022/04/15 04:18:14;;;;;;;5.43;4.30;;;;;;;;;;4936899;29;20297;-58
2022/04/15 04:20:41;;;;;;;5.67;4.37;;;;;;;;;;4936952;29;20705;-59
2022/04/15 04:23:09;;;;;;;6.93;4.30;;;;;;;;;;4938282;29;20726;-59
2022/04/15 04:25:36;;;;;;;3.73;3.47;;;;;;;;;;4936114;29;20317;-59
2022/04/15 04:28:03;;;;;;;6.80;4.60;;;;;;;;;;4945319;29;20281;-59
2022/04/15 04:30:30;;;;;;;5.27;4.37;;;;;;;;;;4949136;28;20254;-58
2022/04/15 04:32:59;;;;;;;6.23;4.73;;;;;;;;;;4949382;29;20306;-59
2022/04/15 04:35:26;;;;;;;6.97;5.27;;;;;;;;;;4934629;29;20607;-59
2022/04/15 04:37:54;;;;;;;8.83;4.83;;;;;;;;;;4931408;29;20200;-59
2022/04/15 04:40:21;;;;;;;5.90;5.30;;;;;;;;;;4943365;29;20261;-59
2022/04/15 04:42:48;;;;;;;5.77;5.20;;;;;;;;;;4941577;29;20229;-59
2022/04/15 04:45:16;;;;;;;6.80;5.70;;;;;;;;;;4946161;29;20569;-59
2022/04/15 04:47:44;;;;;;;8.30;5.33;;;;;;;;;;4937667;29;20656;-59
2022/04/15 04:50:12;;;;;;;6.03;5.43;;;;;;;;;;4949629;29;20628;-58
2022/04/15 04:52:40;;;;;;;7.60;5.57;;;;;;;;;;4941105;29;20258;-59
2022/04/15 04:55:07;;;;;;;9.40;5.50;;;;;;;;;;4940616;29;20211;-59
2022/04/15 04:57:35;;;;;;;8.53;5.43;;;;;;;;;;4947360;29;20261;-59
2022/04/15 05:00:02;;;;;;;7.57;5.70;;;;;;;;;;4948143;29;20206;-59
2022/04/15 05:02:29;;;;;;;11.17;6.83;;;;;;;;;;4949508;29;20218;-58
2022/04/15 05:04:56;;;;;;;11.67;6.63;;;;;;;;;;4946379;28;20234;-58
2022/04/15 05:07:24;;;;;;;9.37;6.50;;;;;;;;;;4951403;29;20662;-59
2022/04/15 05:09:52;;;;;;;10.83;7.00;;;;;;;;;;4941691;29;20267;-60
2022/04/15 05:12:19;;;;;;;9.37;6.53;;;;;;;;;;4940602;29;20218;-60
2022/04/15 05:14:46;;;;;;;9.63;6.83;;;;;;;;;;4952486;29;20210;-59
2022/04/15 05:17:13;;;;;;;8.70;6.20;;;;;;;;;;4951175;29;20218;-59
2022/04/15 05:19:40;;;;;;;8.57;6.20;;;;;;;;;;4952435;29;20210;-59
2022/04/15 05:22:07;;;;;;;12.37;5.63;;;;;;;;;;4942046;29;20254;-59
2022/04/15 05:24:35;;;;;;;7.07;5.07;;;;;;;;;;4945638;29;20297;-59
2022/04/15 05:27:02;;;;;;;8.23;5.50;;;;;;;;;;4949611;29;20243;-59
2022/04/15 05:29:29;;;;;;;5.93;5.00;;;;;;;;;;4935151;29;20306;-60
2022/04/15 05:31:56;;;;;;;7.37;5.53;;;;;;;;;;4946612;29;20698;-59
2022/04/15 05:34:23;;;;;;;6.77;5.27;;;;;;;;;;4941564;29;20210;-59
2022/04/15 05:36:50;;;;;;;5.27;4.77;;;;;;;;;;4949856;29;20223;-59
2022/04/15 05:39:17;;;;;;;8.63;4.90;;;;;;;;;;4943994;29;20211;-59
2022/04/15 05:41:46;;;;;;;5.50;4.77;;;;;;;;;;4944138;29;20632;-59
2022/04/15 05:44:14;;;;;;;6.67;5.40;;;;;;;;;;4935502;29;20278;-59
2022/04/15 05:46:42;;;;;;;5.67;4.73;;;;;;;;;;4939776;29;20682;-59
2022/04/15 05:49:13;;;;;;;7.93;5.27;;;;;;;;;;4947584;29;20219;-59
2022/04/15 05:51:40;;;;;;;9.37;5.43;;;;;;;;;;4945094;29;20674;-59
2022/04/15 05:54:07;;;;;;;9.20;7.07;;;;;;;;;;4945117;29;20212;-59
2022/04/15 05:56:34;;;;;;;11.87;7.80;;;;;;;;;;4945542;29;20266;-59
2022/04/15 05:59:02;;;;;;;8.23;6.10;;;;;;;;;;4946182;29;20222;-59
2022/04/15 06:01:29;;;;;;;7.60;5.87;;;;;;;;;;4951469;29;20207;-60
2022/04/15 06:03:56;;;;;;;8.43;5.60;;;;;;;;;;4951771;29;20624;-59
2022/04/15 06:06:24;;;;;;;10.20;6.60;;;;;;;;;;4949469;29;20207;-59
2022/04/15 06:08:51;;;;;;;8.07;6.10;;;;;;;;;;4944961;29;20303;-59
2022/04/15 06:11:18;;;;;;;14.00;7.27;;;;;;;;;;4948596;29;20678;-59
2022/04/15 06:13:47;;;;;;;9.90;6.93;;;;;;;;;;4951993;29;20214;-60
2022/04/15 06:16:17;;;;;;;8.60;6.73;;;;;;;;;;4935902;29;20214;-60
2022/04/15 06:18:44;;;;;;;8.87;7.07;;;;;;;;;;4936868;29;20331;-59
2022/04/15 06:21:11;;;;;;;9.63;6.67;;;;;;;;;;4946451;29;20226;-59
2022/04/15 06:23:38;;;;;;;10.77;5.87;;;;;;;;;;4946534;29;20740;-60
2022/04/15 06:26:06;;;;;;;8.53;6.03;;;;;;;;;;4952372;29;20234;-60
2022/04/15 06:28:33;;;;;;;7.63;5.80;;;;;;;;;;4949989;29;20769;-61
2022/04/15 06:31:00;;;;;;;8.10;5.90;;;;;;;;;;4937866;29;20231;-61
2022/04/15 06:33:28;;;;;;;8.63;6.13;;;;;;;;;;4934157;29;20208;-61
2022/04/15 06:35:55;;;;;;;9.87;6.87;;;;;;;;;;4933693;29;20271;-61
2022/04/15 06:38:22;;;;;;;7.83;6.20;;;;;;;;;;4941083;29;20208;-59
2022/04/15 06:40:50;;;;;;;9.00;7.63;;;;;;;;;;4937296;29;20203;-60
2022/04/15 06:43:17;;;;;;;9.57;7.63;;;;;;;;;;4940221;29;20690;-59
2022/04/15 06:45:45;;;;;;;11.60;8.90;;;;;;;;;;4934954;29;20736;-59
2022/04/15 06:48:12;;;;;;;14.00;10.03;;;;;;;;;;4933425;29;20314;-59
2022/04/15 06:50:40;;;;;;;12.60;9.23;;;;;;;;;;4949111;29;20206;-59
2022/04/15 06:53:08;;;;;;;16.67;10.07;;;;;;;;;;4950294;29;20697;-59
2022/04/15 06:55:35;;;;;;;13.70;9.18;;;;;;;;;;4948562;29;20203;-59
2022/04/15 06:58:02;;;;;;;11.05;8.38;;;;;;;;;;4947599;29;20211;-59
2022/04/15 07:00:29;;;;;;;11.82;8.93;;;;;;;;;;4937202;29;20203;-59
2022/04/15 07:02:56;;;;;;;14.27;9.60;;;;;;;;;;4944750;29;20222;-59
2022/04/15 07:05:24;;;;;;;11.85;8.80;;;;;;;;;;4942813;29;20211;-59
2022/04/15 07:07:53;;;;;;;12.68;8.75;;;;;;;;;;4934329;29;20232;-59
2022/04/15 07:10:20;;;;;;;14.48;9.18;;;;;;;;;;4935634;29;20218;-64
2022/04/15 07:12:48;;;;;;;12.30;8.40;;;;;;;;;;4943595;29;20218;-59
2022/04/15 07:15:15;;;;;;;12.27;9.35;;;;;;;;;;4944174;29;20211;-58
2022/04/15 07:17:42;;;;;;;13.20;9.32;;;;;;;;;;4940258;29;20235;-57
2022/04/15 07:20:10;;;;;;;12.35;8.90;;;;;;;;;;4960444;28;20210;-57
2022/04/15 07:22:37;;;;;;;9.55;8.60;;;;;;;;;;4939526;28;20212;-59
2022/04/15 07:25:05;;;;;;;13.05;9.55;;;;;;;;;;4949225;29;20211;-57
2022/04/15 07:27:32;;;;;;;10.73;8.85;;;;;;;;;;4934667;29;20279;-58
2022/04/15 07:29:59;;;;;;;12.15;8.95;;;;;;;;;;4934917;29;20234;-58
2022/04/15 07:32:28;;;;;;;10.55;8.75;;;;;;;;;;4940826;29;20609;-58
2022/04/15 07:34:55;;;;;;;11.55;9.45;;;;;;;;;;4942747;29;20254;-58
2022/04/15 07:37:23;;;;;;;11.73;8.93;;;;;;;;;;4937241;29;20271;-58
2022/04/15 07:39:50;;;;;;;12.32;9.05;;;;;;;;;;4935555;29;20315;-58
2022/04/15 07:42:18;;;;;;;9.95;8.27;;;;;;;;;;4941628;29;20734;-58
2022/04/15 07:44:45;;;;;;;12.18;8.40;;;;;;;;;;4940774;29;20208;-58
2022/04/15 07:47:12;;;;;;;11.95;8.63;;;;;;;;;;4934767;29;20208;-58
2022/04/15 07:49:39;;;;;;;10.43;8.70;;;;;;;;;;4940895;29;20684;-58
2022/04/15 07:52:08;;;;;;;10.15;7.97;;;;;;;;;;4942462;29;20258;-59
2022/04/15 07:54:35;;;;;;;9.50;8.35;;;;;;;;;;4948218;29;20234;-59
2022/04/15 07:57:03;;;;;;;11.05;8.32;;;;;;;;;;4942115;29;20216;-58
2022/04/15 07:59:31;;;;;;;8.63;7.72;;;;;;;;;;4948258;29;20266;-59
2022/04/15 08:01:59;;;;;;;8.52;7.25;;;;;;;;;;4949246;29;20670;-58
2022/04/15 08:04:27;;;;;;;10.05;8.00;;;;;;;;;;4935495;29;20282;-58
2022/04/15 08:06:54;;;;;;;9.23;7.00;;;;;;;;;;4943697;29;20211;-58
2022/04/15 08:09:22;;;;;;;9.35;7.82;;;;;;;;;;4949025;29;20235;-60
2022/04/15 08:11:49;;;;;;;9.73;7.82;;;;;;;;;;4948067;29;20203;-58
2022/04/15 08:14:16;;;;;;;11.43;7.78;;;;;;;;;;4940071;29;20215;-57
2022/04/15 08:16:44;;;;;;;10.10;7.07;;;;;;;;;;4943159;29;20212;-58
2022/04/15 08:19:11;;;;;;;7.75;6.95;;;;;;;;;;4941698;29;20206;-58
2022/04/15 08:21:38;;;;;;;6.82;5.72;;;;;;;;;;4939922;29;20586;-58
2022/04/15 08:24:06;;;;;;;4.65;4.05;;;;;;;;;;4935436;29;20249;-57
2022/04/15 08:26:33;;;;;;;4.72;3.53;;;;;;;;;;4931504;29;20728;-58
2022/04/15 08:29:00;;;;;;;3.10;3.00;;;;;;;;;;4933415;29;20283;-64
2022/04/15 08:31:27;;;;;;;2.53;2.42;;;;;;;;;;4944412;29;20211;-58
2022/04/15 08:33:55;;;;;;;3.10;2.90;;;;;;;;;;4950085;29;20384;-60
2022/04/15 08:36:22;;;;;;;2.63;2.53;;;;;;;;;;4948844;29;20215;-59
2022/04/15 08:38:49;;;;;;;2.33;2.22;;;;;;;;;;4940672;29;20203;-60
2022/04/15 08:41:16;;;;;;;2.60;2.40;;;;;;;;;;4956396;28;20558;-60
2022/04/15 08:43:44;;;;;;;2.17;1.65;;;;;;;;;;4947503;28;20219;-60
2022/04/15 08:46:11;;;;;;;2.25;1.08;;;;;;;;;;4937763;29;20238;-59
2022/04/15 08:48:40;;;;;;;0.98;0.98;;;;;;;;;;4944449;29;20207;-59
2022/04/15 08:51:09;;;;;;;1.48;1.38;;;;;;;;;;4946981;28;20345;-59
2022/04/15 08:53:37;;;;;;;1.33;1.00;;;;;;;;;;4955129;29;20306;-59
2022/04/15 08:56:04;;;;;;;0.60;0.60;;;;;;;;;;4954928;29;20214;-59
2022/04/15 08:58:31;;;;;;;0.80;0.80;;;;;;;;;;4951970;29;20619;-59
2022/04/15 09:00:58;;;;;;;0.50;0.50;;;;;;;;;;4938479;29;20207;-59
2022/04/15 09:03:25;;;;;;;0.80;0.80;;;;;;;;;;4952846;29;20286;-59
2022/04/15 09:05:52;;;;;;;0.63;0.63;;;;;;;;;;4951451;29;20214;-56
2022/04/15 09:08:21;;;;;;;0.60;0.60;;;;;;;;;;4938088;29;20212;-58
2022/04/15 09:10:55;;;;;;;0.50;0.50;;;;;;;;;;4939791;29;20234;-58
2022/04/15 09:13:23;;;;;;;0.80;0.55;;;;;;;;;;4939335;29;20766;-58
2022/04/15 09:15:51;;;;;;;0.68;0.68;;;;;;;;;;4939230;29;20278;-60
2022/04/15 09:18:39;;;;;;;0.80;0.80;;;;;;;;;;4938199;29;20302;-59
2022/04/15 09:21:17;;;;;;;1.58;0.70;;;;;;;;;;4940348;29;20558;-63
2022/04/15 09:23:47;;;;;;;0.70;0.70;;;;;;;;;;4942155;28;20293;-59
2022/04/15 09:26:14;;;;;;;0.60;0.60;;;;;;;;;;4946745;28;20234;-59
2022/04/15 09:28:41;;;;;;;0.40;0.40;;;;;;;;;;4947971;29;20705;-61
2022/04/15 09:31:13;;;;;;;0.50;0.40;;;;;;;;;;4951017;29;20788;-60
2022/04/15 09:33:40;;;;;;;0.43;0.43;;;;;;;;;;4956140;28;20214;-60
2022/04/15 09:36:07;;;;;;;1.45;0.30;;;;;;;;;;4946909;28;20207;-63
2022/04/15 09:38:44;;;;;;;0.25;0.22;;;;;;;;;;4945978;29;20203;-62
2022/04/15 09:41:22;;;;;;;0.30;0.30;;;;;;;;;;4935884;29;20640;-63
2022/04/15 09:43:52;;;;;;;0.20;0.20;;;;;;;;;;4943483;29;20678;-63
2022/04/15 09:46:19;;;;;;;0.40;0.40;;;;;;;;;;4938174;29;20994;-60
2022/04/15 09:49:01;;;;;;;0.30;0.30;;;;;;;;;;4940772;29;20207;-59
2022/04/15 09:51:28;;;;;;;0.88;0.30;;;;;;;;;;4943984;28;20639;-60
2022/04/15 09:53:58;;;;;;;0.30;0.30;;;;;;;;;;4947916;29;20215;-62
2022/04/15 09:56:27;;;;;;;0.65;0.60;;;;;;;;;;4942808;29;20246;-61
2022/04/15 09:58:55;;;;;;;0.40;0.40;;;;;;;;;;4937999;29;20274;-60
2022/04/15 10:01:24;;;;;;;0.40;0.40;;;;;;;;;;4945171;29;20689;-61
2022/04/15 10:03:51;;;;;;;1.10;0.45;;;;;;;;;;4929360;29;20226;-61
2022/04/15 10:06:18;;;;;;;1.80;0.40;;;;;;;;;;4940713;29;20207;-59
2022/04/15 10:08:45;;;;;;;0.30;0.30;;;;;;;;;;4947920;29;20219;-61
2022/04/15 10:11:12;;;;;;;0.30;0.30;;;;;;;;;;4941161;29;20246;-59
2022/04/15 10:13:41;;;;;;;0.75;0.30;;;;;;;;;;4935138;29;20626;-59
2022/04/15 10:16:09;;;;;;;1.65;0.40;;;;;;;;;;4938075;29;20215;-66
2022/04/15 10:18:36;;;;;;;0.20;0.20;;;;;;;;;;4937768;29;20266;-63
2022/04/15 10:21:04;;;;;;;1.52;0.20;;;;;;;;;;4936844;29;20203;-63
2022/04/15 10:23:32;;;;;;;0.63;0.30;;;;;;;;;;4946703;29;20262;-63
2022/04/15 10:26:01;;;;;;;0.32;0.28;;;;;;;;;;4943313;29;20243;-62
2022/04/15 10:28:39;;;;;;;0.68;0.50;;;;;;;;;;4933221;29;20265;-70
2022/04/15 10:31:11;;;;;;;0.50;0.20;;;;;;;;;;4936170;29;20243;-63
2022/04/15 10:33:39;;;;;;;0.30;0.30;;;;;;;;;;4940578;29;20277;-66
2022/04/15 10:36:12;;;;;;;0.50;0.50;;;;;;;;;;4941497;29;20208;-59
2022/04/15 10:38:39;;;;;;;0.80;0.70;;;;;;;;;;4946338;29;20652;-60
2022/04/15 10:41:14;;;;;;;0.50;0.50;;;;;;;;;;4931506;29;20207;-60
2022/04/15 10:43:56;;;;;;;0.35;0.35;;;;;;;;;;4943122;29;20301;-60
2022/04/15 10:46:30;;;;;;;1.33;0.50;;;;;;;;;;4932799;29;20760;-60
2022/04/15 10:48:58;;;;;;;0.60;0.60;;;;;;;;;;4944828;29;20302;-59
2022/04/15 10:51:27;;;;;;;0.82;0.50;;;;;;;;;;4944204;29;20781;-60
2022/04/15 10:53:54;;;;;;;0.50;0.50;;;;;;;;;;4943575;29;20224;-59
2022/04/15 10:56:23;;;;;;;0.60;0.60;;;;;;;;;;4930282;29;20243;-59
2022/04/15 11:02:00;;;;;;;0.88;0.52;;;;;;;;;;4934381;29;20218;-60
2022/04/15 11:04:27;;;;;;;1.10;0.57;;;;;;;;;;4935484;29;20301;-59
2022/04/15 11:06:55;;;;;;;4.22;0.93;;;;;;;;;;4938605;29;20215;-60
2022/04/15 11:09:23;;;;;;;0.60;0.55;;;;;;;;;;4931477;29;20317;-60
2022/04/15 11:11:54;;;;;;;0.68;0.68;;;;;;;;;;4945359;29;20203;-60
2022/04/15 11:14:33;;;;;;;0.50;0.50;;;;;;;;;;4937204;29;20590;-59
2022/04/15 11:17:02;;;;;;;0.77;0.60;;;;;;;;;;4928754;29;20227;-59
2022/04/15 11:19:29;;;;;;;0.55;0.55;;;;;;;;;;4941738;29;20214;-59
2022/04/15 11:21:56;;;;;;;1.27;0.50;;;;;;;;;;4944276;29;20219;-61
2022/04/15 11:24:25;;;;;;;1.45;0.43;;;;;;;;;;4931155;29;20220;-60
2022/04/15 11:26:57;;;;;;;0.68;0.68;;;;;;;;;;4934046;29;20231;-60
2022/04/15 11:29:28;;;;;;;0.35;0.35;;;;;;;;;;4935775;29;20784;-60
2022/04/15 11:31:58;;;;;;;2.55;0.60;;;;;;;;;;4945443;29;20215;-60
2022/04/15 11:34:27;;;;;;;2.00;0.60;;;;;;;;;;4937740;29;20222;-60
2022/04/15 11:36:56;;;;;;;0.38;0.38;;;;;;;;;;4942809;29;20222;-60
2022/04/15 11:39:24;;;;;;;0.47;0.47;;;;;;;;;;4943151;29;20219;-59
2022/04/15 11:41:52;;;;;;;0.40;0.40;;;;;;;;;;4947803;28;20216;-59
2022/04/15 11:44:20;;;;;;;0.40;0.40;;;;;;;;;;4939492;29;20650;-59
2022/04/15 11:46:48;;;;;;;0.70;0.70;;;;;;;;;;4941524;29;20207;-60
2022/04/15 11:49:16;;;;;;;0.43;0.22;;;;;;;;;;4934502;29;20667;-60
2022/04/15 11:51:49;;;;;;;0.40;0.40;;;;;;;;;;4943718;28;20250;-60
2022/04/15 11:54:16;;;;;;;0.52;0.38;;;;;;;;;;4935364;29;20757;-60
2022/04/15 11:56:43;;;;;;;0.47;0.40;;;;;;;;;;4944434;29;20215;-60
2022/04/15 11:59:11;;;;;;;1.00;0.40;;;;;;;;;;4943298;29;20269;-60
2022/04/15 12:01:39;;;;;;;0.30;0.30;;;;;;;;;;4941093;29;20211;-60
2022/04/15 12:04:06;;;;;;;0.68;0.60;;;;;;;;;;4935753;29;20234;-60
2022/04/15 12:06:40;;;;;;;3.20;0.60;;;;;;;;;;4945949;29;20593;-60
2022/04/15 12:09:08;;;;;;;0.30;0.30;;;;;;;;;;4933680;29;20223;-62
2022/04/15 12:11:35;;;;;;;1.23;0.50;;;;;;;;;;4941649;29;20404;-62
2022/04/15 12:14:03;;;;;;;0.30;0.30;;;;;;;;;;4939987;28;20245;-60
2022/04/15 12:16:31;;;;;;;1.92;0.30;;;;;;;;;;4929107;29;20256;-61
2022/04/15 12:18:59;;;;;;;2.05;0.50;;;;;;;;;;4935603;29;20262;-60
2022/04/15 12:21:28;;;;;;;0.20;0.20;;;;;;;;;;4939918;28;20642;-61
2022/04/15 12:24:02;;;;;;;0.40;0.40;;;;;;;;;;4930367;29;20218;-60
2022/04/15 12:26:40;;;;;;;0.30;0.30;;;;;;;;;;4930865;29;20643;-60
2022/04/15 12:31:52;;;;;;;0.40;0.40;;;;;;;;;;4927512;29;20500;-60
2022/04/15 12:34:30;;;;;;;0.68;0.55;;;;;;;;;;4942384;29;20199;-60
2022/04/15 12:36:57;;;;;;;1.65;0.60;;;;;;;;;;4934425;29;20215;-61
2022/04/15 12:39:24;;;;;;;0.50;0.50;;;;;;;;;;4927858;29;20219;-61
2022/04/15 12:41:52;;;;;;;0.40;0.40;;;;;;;;;;4939458;29;20226;-61
2022/04/15 12:44:23;;;;;;;1.35;0.57;;;;;;;;;;4935231;29;20678;-61
2022/04/15 12:46:56;;;;;;;1.27;0.52;;;;;;;;;;4928317;29;20362;-59
2022/04/15 12:49:27;;;;;;;0.47;0.47;;;;;;;;;;4944134;29;20238;-59
2022/04/15 12:51:58;;;;;;;0.40;0.40;;;;;;;;;;4940634;29;20230;-58
2022/04/15 12:54:25;;;;;;;0.50;0.50;;;;;;;;;;4933501;28;20256;-60
2022/04/15 12:56:57;;;;;;;1.45;0.50;;;;;;;;;;4937399;28;20222;-58
2022/04/15 12:59:25;;;;;;;0.57;0.57;;;;;;;;;;4939374;28;20210;-58
2022/04/15 13:01:52;;;;;;;0.52;0.50;;;;;;;;;;4938984;28;20203;-59
2022/04/15 13:04:19;;;;;;;0.90;0.60;;;;;;;;;;4933061;29;20219;-59
2022/04/15 13:06:46;;;;;;;1.77;0.40;;;;;;;;;;4939504;29;20226;-59
2022/04/15 13:09:15;;;;;;;0.47;0.47;;;;;;;;;;4943587;29;20714;-59
2022/04/15 13:11:42;;;;;;;0.98;0.40;;;;;;;;;;4945255;28;20227;-58
2022/04/15 13:14:11;;;;;;;0.73;0.40;;;;;;;;;;4946606;29;20250;-58
2022/04/15 13:16:38;;;;;;;0.52;0.38;;;;;;;;;;4929910;29;20212;-59
2022/04/15 13:19:05;;;;;;;0.50;0.50;;;;;;;;;;4933695;29;20218;-59
2022/04/15 13:21:32;;;;;;;0.40;0.40;;;;;;;;;;4944045;29;20332;-59
2022/04/15 13:24:00;;;;;;;0.40;0.40;;;;;;;;;;4942121;29;20215;-60
2022/04/15 13:26:28;;;;;;;0.60;0.60;;;;;;;;;;4939143;29;20964;-62
2022/04/15 13:28:56;;;;;;;0.55;0.50;;;;;;;;;;4944733;29;20215;-60
2022/04/15 13:31:24;;;;;;;0.55;0.55;;;;;;;;;;4935068;29;20232;-61
2022/04/15 13:33:51;;;;;;;0.57;0.40;;;;;;;;;;4938171;29;20303;-60
2022/04/15 13:36:18;;;;;;;0.40;0.40;;;;;;;;;;4934235;29;20212;-60
2022/04/15 13:38:45;;;;;;;0.45;0.38;;;;;;;;;;4938719;29;20207;-60
2022/04/15 13:41:14;;;;;;;0.40;0.40;;;;;;;;;;4943488;29;20227;-60
2022/04/15 13:43:41;;;;;;;0.50;0.50;;;;;;;;;;4944488;29;20230;-59
2022/04/15 13:46:08;;;;;;;0.98;0.60;;;;;;;;;;4942474;29;20207;-59
2022/04/15 13:48:36;;;;;;;0.80;0.70;;;;;;;;;;4937895;29;20222;-60
2022/04/15 13:51:03;;;;;;;0.45;0.45;;;;;;;;;;4946299;29;20227;-60
2022/04/15 13:59:01;;;;;;;0.60;0.60;;;;;;;;;;4942116;29;20298;-60
2022/04/15 14:01:30;;;;;;;0.57;0.43;;;;;;;;;;4943426;29;20586;-60
2022/04/15 14:03:58;;;;;;;1.00;0.55;;;;;;;;;;4937750;29;20222;-60
2022/04/15 14:06:26;;;;;;;0.60;0.60;;;;;;;;;;4945313;29;20596;-59
2022/04/15 14:08:53;;;;;;;0.65;0.60;;;;;;;;;;4939196;29;20769;-60
2022/04/15 14:11:22;;;;;;;0.80;0.68;;;;;;;;;;4933626;29;20234;-60
2022/04/15 14:13:50;;;;;;;0.70;0.50;;;;;;;;;;4946574;29;20239;-60
2022/04/15 14:16:17;;;;;;;0.52;0.52;;;;;;;;;;4941784;29;20212;-60
2022/04/15 14:18:44;;;;;;;0.47;0.47;;;;;;;;;;4935967;29;20203;-59
2022/04/15 14:21:14;;;;;;;0.52;0.40;;;;;;;;;;4937619;29;20577;-60
2022/04/15 14:23:43;;;;;;;0.43;0.43;;;;;;;;;;4937729;29;20239;-60
2022/04/15 14:26:11;;;;;;;2.08;0.60;;;;;;;;;;4932726;29;20705;-60
2022/04/15 14:28:38;;;;;;;0.90;0.50;;;;;;;;;;4946966;29;20298;-59
2022/04/15 14:31:06;;;;;;;1.05;0.60;;;;;;;;;;4942313;29;20299;-60
2022/04/15 14:33:33;;;;;;;0.57;0.57;;;;;;;;;;4942733;29;20207;-60
2022/04/15 14:36:01;;;;;;;0.50;0.50;;;;;;;;;;4938549;29;20212;-61
2022/04/15 14:38:29;;;;;;;0.60;0.60;;;;;;;;;;4941982;28;20199;-62
2022/04/15 14:40:56;;;;;;;0.57;0.57;;;;;;;;;;4949545;29;20215;-61
2022/04/15 14:43:23;;;;;;;1.25;0.65;;;;;;;;;;4937926;29;20687;-59
2022/04/15 14:45:50;;;;;;;1.50;0.75;;;;;;;;;;4929586;29;20219;-59
2022/04/15 14:48:26;;;;;;;1.25;0.52;;;;;;;;;;4936719;29;20211;-59
2022/04/15 14:50:53;;;;;;;0.80;0.80;;;;;;;;;;4944741;29;20317;-60
2022/04/15 14:53:20;;;;;;;0.80;0.80;;;;;;;;;;4944579;29;20215;-60
2022/04/15 14:55:48;;;;;;;2.55;0.82;;;;;;;;;;4943673;29;20271;-60